createdAt,value
2018-09-22T00:01:03.451Z,13.85
2018-09-22T00:03:37.743Z,13.89
2018-09-22T00:06:12.228Z,13.91
2018-09-22T00:08:46.703Z,13.92
2018-09-22T00:11:23.090Z,13.81
2018-09-22T00:13:57.555Z,13.71
2018-09-22T00:16:32.692Z,13.62
2018-09-22T00:19:07.255Z,13.63
2018-09-22T00:21:42.563Z,13.64
2018-09-22T00:24:17.195Z,13.72
2018-09-22T00:26:52.027Z,13.62
2018-09-22T00:29:26.447Z,13.63
2018-09-22T00:32:00.817Z,13.69
2018-09-22T00:34:35.377Z,13.67
2018-09-22T00:37:10.113Z,13.56
2018-09-22T00:39:44.516Z,13.53
2018-09-22T00:42:19.907Z,13.62
2018-09-22T00:44:54.327Z,13.62
2018-09-22T00:47:29.412Z,13.60
2018-09-22T00:50:03.815Z,13.48
2018-09-22T00:52:38.299Z,13.55
2018-09-22T00:55:12.592Z,13.53
2018-09-22T00:57:47.283Z,13.51
2018-09-22T01:00:21.931Z,13.45
2018-09-22T01:02:57.315Z,13.48
2018-09-22T01:05:32.212Z,13.50
2018-09-22T01:08:07.293Z,13.52
2018-09-22T01:10:42.027Z,13.58
2018-09-22T01:13:16.691Z,13.52
2018-09-22T01:15:51.384Z,13.53
2018-09-22T01:18:26.014Z,13.66
2018-09-22T01:21:00.828Z,13.59
2018-09-22T01:23:35.224Z,13.52
2018-09-22T01:26:09.686Z,13.54
2018-09-22T01:28:44.157Z,13.55
2018-09-22T01:31:20.751Z,13.57
2018-09-22T01:33:55.186Z,13.51
2018-09-22T01:36:29.746Z,13.50
2018-09-22T01:39:06.235Z,13.49
2018-09-22T01:41:41.552Z,13.57
2018-09-22T01:44:16.119Z,13.57
2018-09-22T01:46:50.519Z,13.54
2018-09-22T01:49:25.251Z,13.57
2018-09-22T01:51:59.802Z,13.59
2018-09-22T01:54:34.472Z,13.69
2018-09-22T01:57:08.987Z,13.60
2018-09-22T01:59:43.667Z,13.59
2018-09-22T02:02:18.516Z,13.55
2018-09-22T02:04:53.938Z,13.57
2018-09-22T02:07:28.588Z,13.61
2018-09-22T02:10:03.041Z,13.58
2018-09-22T02:12:38.086Z,13.51
2018-09-22T02:15:12.560Z,13.52
2018-09-22T02:17:47.216Z,13.52
2018-09-22T02:20:22.523Z,13.55
2018-09-22T02:22:57.304Z,13.53
2018-09-22T02:25:31.744Z,13.50
2018-09-22T02:28:06.420Z,13.44
2018-09-22T02:30:40.815Z,13.27
2018-09-22T02:33:15.296Z,13.31
2018-09-22T02:35:49.627Z,13.39
2018-09-22T02:38:24.528Z,13.38
2018-09-22T02:40:59.008Z,13.40
2018-09-22T02:43:33.664Z,13.37
2018-09-22T02:46:08.614Z,13.36
2018-09-22T02:48:43.073Z,13.45
2018-09-22T02:51:17.524Z,13.42
2018-09-22T02:53:51.979Z,13.36
2018-09-22T02:56:26.424Z,13.23
2018-09-22T02:59:00.827Z,13.30
2018-09-22T03:01:35.339Z,13.25
2018-09-22T03:04:10.188Z,13.27
2018-09-22T03:06:44.640Z,13.26
2018-09-22T03:09:19.668Z,13.24
2018-09-22T03:11:54.301Z,13.28
2018-09-22T03:14:28.747Z,13.23
2018-09-22T03:17:03.131Z,13.21
2018-09-22T03:19:38.291Z,13.24
2018-09-22T03:22:12.700Z,13.21
2018-09-22T03:24:47.011Z,13.18
2018-09-22T03:27:22.615Z,13.12
2018-09-22T03:29:57.527Z,13.16
2018-09-22T03:32:32.344Z,13.20
2018-09-22T03:35:07.056Z,13.19
2018-09-22T03:37:41.540Z,13.30
2018-09-22T03:40:15.921Z,13.19
2018-09-22T03:42:50.228Z,13.14
2018-09-22T03:45:25.055Z,13.11
2018-09-22T03:47:59.330Z,13.14
2018-09-22T03:50:33.954Z,13.15
2018-09-22T03:53:08.369Z,13.14
2018-09-22T03:55:42.803Z,13.15
2018-09-22T03:58:17.297Z,13.06
2018-09-22T04:00:51.944Z,13.02
2018-09-22T04:03:26.480Z,13.07
2018-09-22T04:06:01.065Z,13.04
2018-09-22T04:08:36.311Z,12.99
2018-09-22T04:11:11.013Z,12.96
2018-09-22T04:13:46.077Z,12.88
2018-09-22T04:16:21.095Z,12.91
2018-09-22T04:18:59.359Z,12.88
2018-09-22T04:21:34.334Z,12.80
2018-09-22T04:24:14.903Z,12.89
2018-09-22T04:26:51.671Z,12.86
2018-09-22T04:29:26.047Z,12.84
2018-09-22T04:32:00.644Z,12.75
2018-09-22T04:34:35.431Z,12.82
2018-09-22T04:37:10.320Z,12.72
2018-09-22T04:39:45.394Z,12.64
2018-09-22T04:42:19.897Z,12.68
2018-09-22T04:44:54.436Z,12.63
2018-09-22T04:47:29.345Z,12.64
2018-09-22T04:50:03.911Z,12.59
2018-09-22T04:52:38.712Z,12.52
2018-09-22T04:55:13.456Z,12.56
2018-09-22T04:57:47.967Z,12.50
2018-09-22T05:00:22.531Z,12.49
2018-09-22T05:02:57.067Z,12.49
2018-09-22T05:05:31.491Z,12.48
2018-09-22T05:08:06.679Z,12.46
2018-09-22T05:10:41.031Z,12.49
2018-09-22T05:13:15.560Z,12.48
2018-09-22T05:15:50.212Z,12.50
2018-09-22T05:18:24.521Z,12.56
2018-09-22T05:20:59.323Z,12.53
2018-09-22T05:23:33.788Z,12.61
2018-09-22T05:26:08.599Z,12.65
2018-09-22T05:28:42.844Z,12.56
2018-09-22T05:31:18.953Z,12.62
2018-09-22T05:33:53.379Z,12.65
2018-09-22T05:36:28.171Z,12.63
2018-09-22T05:39:03.129Z,12.77
2018-09-22T05:41:37.925Z,12.68
2018-09-22T05:44:12.567Z,12.70
2018-09-22T05:46:47.222Z,12.65
2018-09-22T05:49:22.174Z,12.66
2018-09-22T05:51:56.955Z,12.80
2018-09-22T05:54:31.588Z,12.79
2018-09-22T05:57:10.171Z,12.83
2018-09-22T05:59:44.715Z,12.93
2018-09-22T06:02:19.247Z,13.00
2018-09-22T06:04:53.816Z,13.03
2018-09-22T06:07:28.684Z,13.08
2018-09-22T06:10:03.628Z,13.17
2018-09-22T06:12:38.014Z,13.21
2018-09-22T06:15:12.356Z,13.32
2018-09-22T06:17:48.442Z,13.38
2018-09-22T06:20:23.319Z,13.44
2018-09-22T06:22:58.094Z,13.45
2018-09-22T06:25:36.089Z,13.53
2018-09-22T06:28:10.635Z,13.57
2018-09-22T06:30:44.976Z,13.62
2018-09-22T06:33:19.624Z,13.48
2018-09-22T06:36:01.355Z,13.56
2018-09-22T06:38:35.952Z,13.60
2018-09-22T06:41:11.144Z,13.63
2018-09-22T06:43:46.315Z,13.64
2018-09-22T06:46:20.971Z,13.73
2018-09-22T06:48:57.096Z,13.80
2018-09-22T06:51:31.412Z,13.74
2018-09-22T06:54:06.424Z,13.94
2018-09-22T06:56:40.767Z,14.07
2018-09-22T06:59:15.227Z,14.18
2018-09-22T07:01:49.595Z,14.13
2018-09-22T07:04:35.019Z,14.07
2018-09-22T07:07:09.960Z,14.13
2018-09-22T07:09:45.462Z,14.17
2018-09-22T07:12:19.984Z,14.25
2018-09-22T07:14:54.481Z,14.18
2018-09-22T07:17:28.764Z,14.14
2018-09-22T07:20:03.281Z,14.17
2018-09-22T07:22:43.231Z,14.30
2018-09-22T07:25:17.568Z,14.39
2018-09-22T07:27:52.449Z,14.29
2018-09-22T07:30:27.210Z,14.46
2018-09-22T07:33:01.779Z,14.54
2018-09-22T07:35:36.359Z,14.46
2018-09-22T07:38:11.112Z,14.47
2018-09-22T07:40:45.776Z,14.70
2018-09-22T07:43:27.452Z,14.79
2018-09-22T07:46:01.852Z,14.85
2018-09-22T07:48:36.816Z,14.72
2018-09-22T07:51:11.210Z,14.81
2018-09-22T07:53:45.660Z,14.84
2018-09-22T07:56:20.391Z,14.89
2018-09-22T07:58:58.051Z,14.87
2018-09-22T08:01:33.154Z,14.74
2018-09-22T08:04:08.671Z,14.66
2018-09-22T08:06:43.551Z,14.74
2018-09-22T08:09:17.959Z,14.80
2018-09-22T08:11:52.690Z,15.04
2018-09-22T08:14:29.044Z,15.19
2018-09-22T08:17:04.512Z,15.52
2018-09-22T08:19:49.769Z,15.69
2018-09-22T08:22:26.082Z,15.82
2018-09-22T08:25:01.962Z,16.08
2018-09-22T08:27:36.543Z,16.46
2018-09-22T08:30:11.328Z,16.60
2018-09-22T08:32:45.813Z,16.41
2018-09-22T08:35:20.358Z,16.07
2018-09-22T08:37:54.737Z,16.14
2018-09-22T08:40:29.052Z,16.12
2018-09-22T08:43:03.859Z,16.08
2018-09-22T08:45:38.540Z,16.06
2018-09-22T08:48:13.447Z,16.12
2018-09-22T08:50:48.137Z,16.23
2018-09-22T08:53:23.136Z,16.22
2018-09-22T08:56:02.029Z,15.95
2018-09-22T08:58:36.697Z,16.16
2018-09-22T09:01:11.463Z,16.09
2018-09-22T09:03:46.259Z,16.19
2018-09-22T09:06:20.657Z,16.29
2018-09-22T09:08:55.660Z,16.35
2018-09-22T09:11:30.251Z,16.32
2018-09-22T09:14:05.080Z,16.45
2018-09-22T09:16:39.884Z,16.61
2018-09-22T09:19:14.635Z,16.69
2018-09-22T09:21:48.907Z,16.97
2018-09-22T09:24:23.263Z,17.20
2018-09-22T09:26:58.214Z,17.35
2018-09-22T09:29:34.917Z,17.46
2018-09-22T09:32:10.737Z,17.54
2018-09-22T09:34:46.357Z,17.63
2018-09-22T09:37:20.948Z,17.72
2018-09-22T09:39:55.789Z,17.89
2018-09-22T09:42:31.161Z,18.06
2018-09-22T09:45:05.936Z,18.11
2018-09-22T09:47:40.593Z,17.94
2018-09-22T09:50:15.230Z,17.86
2018-09-22T09:52:50.657Z,17.82
2018-09-22T09:55:25.304Z,18.13
2018-09-22T09:57:59.587Z,17.91
2018-09-22T10:00:39.487Z,17.78
2018-09-22T10:03:15.047Z,18.01
2018-09-22T10:05:50.432Z,17.98
2018-09-22T10:08:24.820Z,18.04
2018-09-22T10:11:12.092Z,18.27
2018-09-22T10:13:50.387Z,18.64
2018-09-22T10:16:25.375Z,18.68
2018-09-22T10:19:00.016Z,18.43
2018-09-22T10:21:34.543Z,18.37
2018-09-22T10:24:09.436Z,18.04
2018-09-22T10:26:55.386Z,17.86
2018-09-22T10:29:29.864Z,17.84
2018-09-22T10:32:04.660Z,18.04
2018-09-22T10:34:39.287Z,18.14
2018-09-22T10:37:13.692Z,17.96
2018-09-22T10:39:48.496Z,17.89
2018-09-22T10:42:23.317Z,18.01
2018-09-22T10:44:57.912Z,18.04
2018-09-22T10:47:32.377Z,18.22
2018-09-22T10:50:07.239Z,18.07
2018-09-22T10:52:41.954Z,18.25
2018-09-22T10:55:16.680Z,18.62
2018-09-22T10:57:51.289Z,18.95
2018-09-22T11:00:25.588Z,19.10
2018-09-22T11:02:59.957Z,19.08
2018-09-22T11:05:34.664Z,19.07
2018-09-22T11:08:09.307Z,19.09
2018-09-22T11:10:44.124Z,19.32
2018-09-22T11:13:18.415Z,19.19
2018-09-22T11:15:53.120Z,18.91
2018-09-22T11:18:27.547Z,19.08
2018-09-22T11:21:01.998Z,19.13
2018-09-22T11:23:36.451Z,19.16
2018-09-22T11:26:10.849Z,19.01
2018-09-22T11:28:45.477Z,18.70
2018-09-22T11:31:21.097Z,18.38
2018-09-22T11:33:55.835Z,18.14
2018-09-22T11:36:32.320Z,17.89
2018-09-22T11:39:09.344Z,18.10
2018-09-22T11:41:44.281Z,18.49
2018-09-22T11:44:19.349Z,18.58
2018-09-22T11:46:54.048Z,19.09
2018-09-22T11:49:28.623Z,19.20
2018-09-22T11:52:04.088Z,18.36
2018-09-22T11:54:38.467Z,18.09
2018-09-22T11:57:13.208Z,17.99
2018-09-22T11:59:47.770Z,18.29
2018-09-22T12:02:22.434Z,18.98
2018-09-22T12:04:56.944Z,19.60
2018-09-22T12:07:31.635Z,19.99
2018-09-22T12:10:06.163Z,20.37
2018-09-22T12:12:40.744Z,20.70
2018-09-22T12:15:15.612Z,20.57
2018-09-22T12:17:50.203Z,19.94
2018-09-22T12:20:24.628Z,20.02
2018-09-22T12:23:00.141Z,20.09
2018-09-22T12:25:34.478Z,20.45
2018-09-22T12:28:10.276Z,19.85
2018-09-22T12:30:45.251Z,19.76
2018-09-22T12:33:19.549Z,20.17
2018-09-22T12:35:53.853Z,20.57
2018-09-22T12:38:28.134Z,20.71
2018-09-22T12:41:02.647Z,20.99
2018-09-22T12:43:37.594Z,21.57
2018-09-22T12:46:13.061Z,22.05
2018-09-22T12:48:47.871Z,22.03
2018-09-22T12:51:22.651Z,22.19
2018-09-22T12:53:57.283Z,22.22
2018-09-22T12:56:32.210Z,22.24
2018-09-22T12:59:06.929Z,21.89
2018-09-22T13:01:41.591Z,21.11
2018-09-22T13:04:17.423Z,20.73
2018-09-22T13:06:52.282Z,20.99
2018-09-22T13:09:26.789Z,21.31
2018-09-22T13:12:01.156Z,21.33
2018-09-22T13:14:35.809Z,21.57
2018-09-22T13:17:10.982Z,21.86
2018-09-22T13:19:45.389Z,22.08
2018-09-22T13:22:19.810Z,22.10
2018-09-22T13:24:54.611Z,21.86
2018-09-22T13:27:29.083Z,21.63
2018-09-22T13:30:03.771Z,21.61
2018-09-22T13:32:38.792Z,21.32
2018-09-22T13:35:13.282Z,21.00
2018-09-22T13:37:47.643Z,20.56
2018-09-22T13:40:22.700Z,20.29
2018-09-22T13:42:57.168Z,20.06
2018-09-22T13:45:31.627Z,19.73
2018-09-22T13:48:06.316Z,19.85
2018-09-22T13:50:40.935Z,19.83
2018-09-22T13:53:15.752Z,20.03
2018-09-22T13:55:50.947Z,20.39
2018-09-22T13:58:25.932Z,20.78
2018-09-22T14:01:00.311Z,20.68
2018-09-22T14:03:34.877Z,20.71
2018-09-22T14:06:09.930Z,20.84
2018-09-22T14:08:44.308Z,21.02
2018-09-22T14:11:18.716Z,21.22
2018-09-22T14:13:53.182Z,21.16
2018-09-22T14:16:27.887Z,21.16
2018-09-22T14:19:02.548Z,21.25
2018-09-22T14:21:36.944Z,21.27
2018-09-22T14:24:12.506Z,21.41
2018-09-22T14:26:47.559Z,21.62
2018-09-22T14:29:22.358Z,21.67
2018-09-22T14:31:57.224Z,21.70
2018-09-22T14:34:32.892Z,21.83
2018-09-22T14:37:08.349Z,21.66
2018-09-22T14:39:43.744Z,21.61
2018-09-22T14:42:18.321Z,21.36
2018-09-22T14:44:52.748Z,21.30
2018-09-22T14:47:27.151Z,21.15
2018-09-22T14:50:01.840Z,21.07
2018-09-22T14:52:36.499Z,20.83
2018-09-22T14:55:10.947Z,20.87
2018-09-22T14:57:45.513Z,20.91
2018-09-22T15:00:20.010Z,20.71
2018-09-22T15:02:54.751Z,20.45
2018-09-22T15:05:29.447Z,20.12
2018-09-22T15:08:04.505Z,20.04
2018-09-22T15:10:39.327Z,19.96
2018-09-22T15:13:13.684Z,19.92
2018-09-22T15:15:48.135Z,19.66
2018-09-22T15:18:22.619Z,19.55
2018-09-22T15:20:57.163Z,19.53
2018-09-22T15:23:31.844Z,19.47
2018-09-22T15:26:06.327Z,19.54
2018-09-22T15:28:40.695Z,19.40
2018-09-22T15:31:15.720Z,19.48
2018-09-22T15:33:50.589Z,19.57
2018-09-22T15:36:24.963Z,19.58
2018-09-22T15:38:59.338Z,19.51
2018-09-22T15:41:34.123Z,19.40
2018-09-22T15:44:08.460Z,19.26
2018-09-22T15:46:43.492Z,19.25
2018-09-22T15:49:17.788Z,19.22
2018-09-22T15:51:52.617Z,19.22
2018-09-22T15:54:27.879Z,19.10
2018-09-22T15:57:02.330Z,18.95
2018-09-22T15:59:37.043Z,18.81
2018-09-22T16:02:11.371Z,18.51
2018-09-22T16:04:45.896Z,18.23
2018-09-22T16:07:20.535Z,18.10
2018-09-22T16:09:54.964Z,17.89
2018-09-22T16:12:29.687Z,17.68
2018-09-22T16:15:04.004Z,17.54
2018-09-22T16:17:38.530Z,17.60
2018-09-22T16:20:13.447Z,17.50
2018-09-22T16:22:48.229Z,17.39
2018-09-22T16:25:22.637Z,17.10
2018-09-22T16:27:57.155Z,17.03
2018-09-22T16:30:32.083Z,16.91
2018-09-22T16:33:06.750Z,16.77
2018-09-22T16:35:41.174Z,16.66
2018-09-22T16:38:17.910Z,16.65
2018-09-22T16:40:52.744Z,16.65
2018-09-22T16:43:27.241Z,16.56
2018-09-22T16:46:02.016Z,16.51
2018-09-22T16:48:37.017Z,16.40
2018-09-22T16:51:26.887Z,16.35
2018-09-22T16:54:01.434Z,16.25
2018-09-22T16:56:36.083Z,16.15
2018-09-22T16:59:11.531Z,16.10
2018-09-22T17:01:45.923Z,16.04
2018-09-22T17:04:20.444Z,16.00
2018-09-22T17:06:55.358Z,15.86
2018-09-22T17:09:29.666Z,15.84
2018-09-22T17:12:04.937Z,15.80
2018-09-22T17:14:39.328Z,15.72
2018-09-22T17:17:14.088Z,15.64
2018-09-22T17:19:48.518Z,15.63
2018-09-22T17:22:23.271Z,15.59
2018-09-22T17:24:58.291Z,15.53
2018-09-22T17:27:33.379Z,15.53
2018-09-22T17:30:08.489Z,15.45
2018-09-22T17:32:43.316Z,15.52
2018-09-22T17:35:17.636Z,15.54
2018-09-22T17:37:52.360Z,15.57
2018-09-22T17:40:27.323Z,15.53
2018-09-22T17:43:01.947Z,15.52
2018-09-22T17:45:36.795Z,15.49
2018-09-22T17:48:11.210Z,15.54
2018-09-22T17:50:45.851Z,15.53
2018-09-22T17:53:20.471Z,15.49
2018-09-22T17:55:55.142Z,15.43
2018-09-22T17:58:30.235Z,15.44
2018-09-22T18:01:05.064Z,15.41
2018-09-22T18:03:39.653Z,15.42
2018-09-22T18:06:14.403Z,15.40
2018-09-22T18:08:48.823Z,15.40
2018-09-22T18:11:23.509Z,15.43
2018-09-22T18:13:57.911Z,15.37
2018-09-22T18:16:32.364Z,15.36
2018-09-22T18:19:07.196Z,15.35
2018-09-22T18:21:41.782Z,15.37
2018-09-22T18:24:17.183Z,15.35
2018-09-22T18:26:51.567Z,15.38
2018-09-22T18:29:27.336Z,15.40
2018-09-22T18:32:02.983Z,15.36
2018-09-22T18:34:37.469Z,15.30
2018-09-22T18:37:11.967Z,15.31
2018-09-22T18:39:46.748Z,15.28
2018-09-22T18:42:21.336Z,15.30
2018-09-22T18:44:56.088Z,15.33
2018-09-22T18:47:30.617Z,15.32
2018-09-22T18:50:05.449Z,15.34
2018-09-22T18:52:39.926Z,15.33
2018-09-22T18:55:14.531Z,15.26
2018-09-22T18:57:48.787Z,15.26
2018-09-22T19:00:23.048Z,15.33
2018-09-22T19:02:57.360Z,15.35
2018-09-22T19:05:32.003Z,15.26
2018-09-22T19:08:06.666Z,15.19
2018-09-22T19:10:41.408Z,15.17
2018-09-22T19:13:19.781Z,15.15
2018-09-22T19:15:57.675Z,15.18
2018-09-22T19:18:35.896Z,15.18
2018-09-22T19:21:20.336Z,15.17
2018-09-22T19:24:00.004Z,15.10
2018-09-22T19:26:41.716Z,15.08
2018-09-22T19:30:23.553Z,15.05
2018-09-22T19:33:02.019Z,15.00
2018-09-22T19:35:42.363Z,15.03
2018-09-22T19:39:21.268Z,15.03
2018-09-22T19:42:11.030Z,14.98
2018-09-22T19:45:51.552Z,15.02
2018-09-22T19:49:03.769Z,15.06
2018-09-22T19:51:48.417Z,14.98
2018-09-22T19:54:39.188Z,15.00
2018-09-22T19:57:13.636Z,14.98
2018-09-22T19:59:48.002Z,14.98
2018-09-22T20:02:22.964Z,15.03
2018-09-22T20:04:57.659Z,14.95
2018-09-22T20:07:40.111Z,14.91
2018-09-22T20:10:14.580Z,14.93
2018-09-22T20:12:49.963Z,14.93
2018-09-22T20:15:24.745Z,14.97
2018-09-22T20:17:59.372Z,14.95
2018-09-22T20:20:33.803Z,14.95
2018-09-22T20:23:09.344Z,14.90
2018-09-22T20:25:44.264Z,14.95
2018-09-22T20:28:18.874Z,14.88
2018-09-22T20:30:54.004Z,14.93
2018-09-22T20:33:28.429Z,14.89
2018-09-22T20:36:03.504Z,14.80
2018-09-22T20:38:38.311Z,14.76
2018-09-22T20:41:12.900Z,14.76
2018-09-22T20:43:47.423Z,14.70
2018-09-22T20:46:22.208Z,14.69
2018-09-22T20:48:57.276Z,14.74
2018-09-22T20:51:31.744Z,14.72
2018-09-22T20:54:07.068Z,14.78
2018-09-22T20:56:42.665Z,14.74
2018-09-22T20:59:17.059Z,14.73
2018-09-22T21:01:51.668Z,14.70
2018-09-22T21:04:26.324Z,14.72
2018-09-22T21:07:00.952Z,14.64
2018-09-22T21:09:35.935Z,14.67
2018-09-22T21:12:10.461Z,14.68
2018-09-22T21:14:44.869Z,14.69
2018-09-22T21:17:19.301Z,14.71
2018-09-22T21:20:16.968Z,14.76
2018-09-22T21:22:51.474Z,14.63
2018-09-22T21:25:26.328Z,14.63
2018-09-22T21:28:01.045Z,14.69
2018-09-22T21:30:35.881Z,14.68
2018-09-22T21:33:10.492Z,14.55
2018-09-22T21:35:50.943Z,14.65
2018-09-22T21:38:25.438Z,14.61
2018-09-22T21:41:11.788Z,14.63
2018-09-22T21:43:46.384Z,14.63
2018-09-22T21:46:21.188Z,14.59
2018-09-22T21:48:59.710Z,14.59
2018-09-22T21:51:34.153Z,14.62
2018-09-22T21:54:10.667Z,14.62
2018-09-22T21:56:45.304Z,14.58
2018-09-22T21:59:20.105Z,14.61
2018-09-22T22:01:54.719Z,14.53
2018-09-22T22:04:29.636Z,14.55
2018-09-22T22:07:04.537Z,14.56
2018-09-22T22:09:39.175Z,14.48
2018-09-22T22:12:13.764Z,14.48
2018-09-22T22:14:50.596Z,14.51
2018-09-22T22:17:24.982Z,14.45
2018-09-22T22:19:59.288Z,14.40
2018-09-22T22:22:33.795Z,14.40
2018-09-22T22:25:09.092Z,14.39
2018-09-22T22:27:43.524Z,14.32
2018-09-22T22:30:24.337Z,14.38
2018-09-22T22:32:58.863Z,14.31
2018-09-22T22:35:33.805Z,14.29
2018-09-22T22:38:08.219Z,14.29
2018-09-22T22:40:42.575Z,14.24
2018-09-22T22:43:17.576Z,14.19
2018-09-22T22:45:52.615Z,14.19
2018-09-22T22:48:27.423Z,14.21
2018-09-22T22:51:02.127Z,14.15
2018-09-22T22:53:36.571Z,14.19
2018-09-22T22:56:11.324Z,14.22
2018-09-22T22:58:46.115Z,14.27
2018-09-22T23:01:20.723Z,14.18
2018-09-22T23:03:55.012Z,14.13
2018-09-22T23:06:29.999Z,14.12
2018-09-22T23:09:05.796Z,14.12
2018-09-22T23:11:40.794Z,14.07
2018-09-22T23:14:15.558Z,14.02
2018-09-22T23:16:50.119Z,14.02
2018-09-22T23:19:24.855Z,14.01
2018-09-22T23:21:59.551Z,13.93
2018-09-22T23:24:33.839Z,13.95
2018-09-22T23:27:08.554Z,13.93
2018-09-22T23:29:43.246Z,13.73
2018-09-22T23:32:18.056Z,13.48
2018-09-22T23:34:53.236Z,13.39
2018-09-22T23:37:27.652Z,13.32
2018-09-22T23:40:02.158Z,13.39
2018-09-22T23:42:36.956Z,13.20
2018-09-22T23:45:11.743Z,13.22
2018-09-22T23:47:46.087Z,13.19
2018-09-22T23:50:20.839Z,13.14
2018-09-22T23:52:55.552Z,13.21
2018-09-22T23:55:30.712Z,13.20
2018-09-22T23:58:05.429Z,13.11
